createdAt,value
2023-05-05T00:02:26.418Z,97708.72
2023-05-05T00:04:54.466Z,97711.84
2023-05-05T00:07:22.406Z,97707.00
2023-05-05T00:09:50.820Z,97715.09
2023-05-05T00:12:20.056Z,97709.66
2023-05-05T00:14:48.001Z,97700.47
2023-05-05T00:17:15.924Z,97702.97
2023-05-05T00:19:44.234Z,97701.06
2023-05-05T00:22:12.713Z,97703.25
2023-05-05T00:24:40.547Z,97707.03
2023-05-05T00:27:08.357Z,97698.31
2023-05-05T00:29:37.983Z,97713.22
2023-05-05T00:32:06.465Z,97699.53
2023-05-05T00:34:34.372Z,97697.84
2023-05-05T00:37:02.922Z,97689.28
2023-05-05T00:39:30.772Z,97694.25
2023-05-05T00:41:59.482Z,97704.41
2023-05-05T00:44:41.179Z,97704.25
2023-05-05T00:47:09.944Z,97698.94
2023-05-05T00:49:39.225Z,97688.72
2023-05-05T00:52:08.397Z,97685.31
2023-05-05T00:54:36.466Z,97694.16
2023-05-05T00:57:04.838Z,97682.50
2023-05-05T00:59:35.202Z,97678.19
2023-05-05T01:02:04.666Z,97679.50
2023-05-05T01:04:32.635Z,97688.94
2023-05-05T01:07:15.833Z,97686.81
2023-05-05T01:09:57.934Z,97674.19
2023-05-05T01:12:42.963Z,97675.25
2023-05-05T01:15:16.688Z,97678.97
2023-05-05T01:17:54.231Z,97683.91
2023-05-05T01:20:27.671Z,97677.84
2023-05-05T01:23:04.283Z,97683.28
2023-05-05T01:26:02.556Z,97674.88
2023-05-05T01:28:44.424Z,97681.47
2023-05-05T01:31:24.624Z,97679.94
2023-05-05T01:34:02.102Z,97682.19
2023-05-05T01:36:37.256Z,97669.03
2023-05-05T01:39:07.013Z,97666.25
2023-05-05T01:41:41.141Z,97675.75
2023-05-05T01:44:12.430Z,97677.66
2023-05-05T01:46:40.144Z,97674.59
2023-05-05T01:49:11.577Z,97675.31
2023-05-05T01:51:41.528Z,97679.59
2023-05-05T01:54:10.529Z,97667.78
2023-05-05T01:56:41.214Z,97678.66
2023-05-05T01:59:10.922Z,97686.84
2023-05-05T02:01:44.496Z,97679.94
2023-05-05T02:04:15.777Z,97666.31
2023-05-05T02:06:45.097Z,97683.03
2023-05-05T02:09:15.271Z,97683.97
2023-05-05T02:11:43.810Z,97682.84
2023-05-05T02:14:13.300Z,97682.00
2023-05-05T02:16:43.951Z,97673.53
2023-05-05T02:19:14.087Z,97683.50
2023-05-05T02:21:43.337Z,97678.00
2023-05-05T02:24:11.949Z,97680.66
2023-05-05T02:26:41.764Z,97670.72
2023-05-05T02:29:15.987Z,97668.22
2023-05-05T02:31:48.637Z,97675.34
2023-05-05T02:34:24.121Z,97676.69
2023-05-05T02:36:54.693Z,97677.38
2023-05-05T02:39:32.217Z,97677.75
2023-05-05T02:42:03.034Z,97680.38
2023-05-05T02:44:34.585Z,97673.69
2023-05-05T02:47:03.974Z,97677.59
2023-05-05T02:49:33.651Z,97676.56
2023-05-05T02:52:02.241Z,97695.63
2023-05-05T02:54:30.412Z,97676.94
2023-05-05T02:56:59.276Z,97681.47
2023-05-05T02:59:35.467Z,97680.94
2023-05-05T03:02:14.474Z,97673.28
2023-05-05T03:04:50.061Z,97667.56
2023-05-05T03:07:25.799Z,97665.25
2023-05-05T03:10:03.479Z,97667.81
2023-05-05T03:12:38.678Z,97677.03
2023-05-05T03:15:10.392Z,97676.84
2023-05-05T03:17:40.649Z,97662.84
2023-05-05T03:20:12.838Z,97665.00
2023-05-05T03:22:40.618Z,97657.84
2023-05-05T03:25:09.224Z,97660.53
2023-05-05T03:27:37.502Z,97664.19
2023-05-05T03:30:06.963Z,97659.97
2023-05-05T03:32:35.511Z,97659.13
2023-05-05T03:35:03.300Z,97658.81
2023-05-05T03:37:32.517Z,97667.53
2023-05-05T03:40:00.858Z,97668.63
2023-05-05T03:42:28.710Z,97661.88
2023-05-05T03:44:57.218Z,97660.84
2023-05-05T03:47:26.186Z,97657.63
2023-05-05T03:49:54.400Z,97659.13
2023-05-05T03:52:22.653Z,97668.31
2023-05-05T03:54:51.819Z,97653.47
2023-05-05T03:57:19.761Z,97670.03
2023-05-05T03:59:48.104Z,97665.25
2023-05-05T04:02:18.373Z,97668.09
2023-05-05T04:04:46.552Z,97655.75
2023-05-05T04:07:14.898Z,97657.44
2023-05-05T04:09:44.742Z,97676.00
2023-05-05T04:12:14.510Z,97670.09
2023-05-05T04:14:42.943Z,97664.69
2023-05-05T04:17:10.873Z,97662.34
2023-05-05T04:19:38.791Z,97658.34
2023-05-05T04:22:07.170Z,97656.72
2023-05-05T04:24:35.620Z,97659.03
2023-05-05T04:27:03.632Z,97668.56
2023-05-05T04:29:33.966Z,97659.91
2023-05-05T04:32:02.159Z,97664.78
2023-05-05T04:34:30.194Z,97672.00
2023-05-05T04:36:58.611Z,97668.84
2023-05-05T04:39:29.142Z,97673.84
2023-05-05T04:41:57.290Z,97661.03
2023-05-05T04:44:25.657Z,97677.03
2023-05-05T04:46:54.836Z,97681.59
2023-05-05T04:49:23.429Z,97694.88
2023-05-05T04:51:51.680Z,97713.25
2023-05-05T04:54:19.817Z,97735.56
2023-05-05T04:56:48.323Z,97775.97
2023-05-05T04:59:16.196Z,97782.56
2023-05-05T05:01:44.124Z,97798.94
2023-05-05T05:04:14.005Z,97807.56
2023-05-05T05:06:41.773Z,97818.47
2023-05-05T05:09:09.436Z,97828.94
2023-05-05T05:11:37.734Z,97819.69
2023-05-05T05:14:05.681Z,97855.28
2023-05-05T05:16:33.735Z,97881.72
2023-05-05T05:19:02.302Z,97876.53
2023-05-05T05:21:31.727Z,97872.69
2023-05-05T05:23:59.669Z,97868.78
2023-05-05T05:26:28.791Z,97877.38
2023-05-05T05:28:57.458Z,97901.28
2023-05-05T05:31:26.218Z,97926.28
2023-05-05T05:33:54.689Z,97935.81
2023-05-05T05:36:23.076Z,97907.81
2023-05-05T05:38:52.811Z,97949.91
2023-05-05T05:41:22.062Z,97919.34
2023-05-05T05:43:50.229Z,97918.22
2023-05-05T05:46:18.520Z,97894.41
2023-05-05T05:48:47.185Z,97939.13
2023-05-05T05:51:15.078Z,97926.09
2023-05-05T05:53:43.687Z,97899.38
2023-05-05T05:56:13.271Z,97964.69
2023-05-05T05:58:42.651Z,97945.50
2023-05-05T06:01:10.891Z,97944.38
2023-05-05T06:03:39.504Z,97972.66
2023-05-05T06:06:07.767Z,97988.84
2023-05-05T06:08:37.368Z,98010.44
2023-05-05T06:11:05.661Z,98017.28
2023-05-05T06:13:35.243Z,98010.63
2023-05-05T06:16:03.447Z,97982.78
2023-05-05T06:18:31.988Z,97991.88
2023-05-05T06:21:00.270Z,97974.59
2023-05-05T06:23:28.240Z,97981.38
2023-05-05T06:25:57.233Z,97967.06
2023-05-05T06:28:25.211Z,97914.81
2023-05-05T06:30:54.603Z,97927.63
2023-05-05T06:33:23.586Z,97918.16
2023-05-05T06:35:56.852Z,97938.31
2023-05-05T06:38:25.418Z,97961.13
2023-05-05T06:40:53.584Z,97977.78
2023-05-05T06:43:23.394Z,97920.97
2023-05-05T06:45:51.971Z,97942.00
2023-05-05T06:48:22.247Z,97982.38
2023-05-05T06:50:50.900Z,97988.59
2023-05-05T06:53:19.615Z,98037.75
2023-05-05T06:55:49.225Z,97950.78
2023-05-05T06:58:17.655Z,97926.84
2023-05-05T07:00:46.614Z,97984.25
2023-05-05T07:03:15.321Z,97958.34
2023-05-05T07:05:45.561Z,97996.72
2023-05-05T07:08:14.956Z,97923.28
2023-05-05T07:10:43.266Z,97933.66
2023-05-05T07:13:11.717Z,97960.72
2023-05-05T07:15:46.858Z,97976.53
2023-05-05T07:18:15.276Z,97945.66
2023-05-05T07:20:45.632Z,98028.59
2023-05-05T07:23:14.537Z,98019.44
2023-05-05T07:25:42.464Z,97990.38
2023-05-05T07:28:10.576Z,98082.09
2023-05-05T07:30:39.210Z,98028.41
2023-05-05T07:33:08.045Z,98021.81
2023-05-05T07:35:36.535Z,98000.47
2023-05-05T07:38:06.927Z,98045.88
2023-05-05T07:40:36.379Z,98028.03
2023-05-05T07:43:05.081Z,97936.13
2023-05-05T07:45:33.515Z,97975.28
2023-05-05T07:48:01.915Z,98035.97
2023-05-05T07:50:30.051Z,98096.09
2023-05-05T07:53:10.768Z,98002.69
2023-05-05T07:55:44.359Z,97989.03
2023-05-05T07:58:12.838Z,97959.72
2023-05-05T08:00:41.290Z,97976.09
2023-05-05T08:03:11.636Z,97990.53
2023-05-05T08:05:40.867Z,98030.47
2023-05-05T08:08:09.986Z,97985.91
2023-05-05T08:10:38.079Z,98030.69
2023-05-05T08:13:07.406Z,98046.97
2023-05-05T08:15:35.799Z,98003.00
2023-05-05T08:18:04.647Z,98034.28
2023-05-05T08:20:33.120Z,98032.78
2023-05-05T08:23:01.900Z,98059.59
2023-05-05T08:25:29.941Z,98039.09
2023-05-05T08:27:57.757Z,98055.91
2023-05-05T08:30:27.871Z,97987.81
2023-05-05T08:32:56.620Z,97970.59
2023-05-05T08:35:25.371Z,98035.59
2023-05-05T08:37:54.515Z,97999.84
2023-05-05T08:40:30.595Z,98023.94
2023-05-05T08:42:58.710Z,97999.25
2023-05-05T08:45:30.659Z,98007.13
2023-05-05T08:48:02.264Z,98020.25
2023-05-05T08:50:31.938Z,97988.09
2023-05-05T08:53:09.389Z,98063.22
2023-05-05T08:55:48.706Z,98034.78
2023-05-05T08:58:19.000Z,98030.94
2023-05-05T09:00:48.763Z,98089.38
2023-05-05T09:03:18.076Z,98079.28
2023-05-05T09:05:46.706Z,98028.69
2023-05-05T09:08:15.146Z,98013.59
2023-05-05T09:10:45.243Z,98027.22
2023-05-05T09:13:15.436Z,98111.06
2023-05-05T09:15:44.586Z,98009.69
2023-05-05T09:18:14.653Z,98040.00
2023-05-05T09:20:42.977Z,98021.28
2023-05-05T09:23:12.433Z,97978.31
2023-05-05T09:25:40.692Z,98023.34
2023-05-05T09:28:14.143Z,98032.81
2023-05-05T09:30:43.925Z,98015.03
2023-05-05T09:33:14.694Z,97999.75
2023-05-05T09:35:50.341Z,98076.56
2023-05-05T09:38:20.178Z,98100.34
2023-05-05T09:40:49.126Z,98017.09
2023-05-05T09:43:18.810Z,97979.69
2023-05-05T09:45:49.343Z,97946.66
2023-05-05T09:48:29.264Z,97993.56
2023-05-05T09:50:59.755Z,98074.50
2023-05-05T09:53:39.142Z,98028.94
2023-05-05T09:56:08.629Z,97981.53
2023-05-05T09:58:37.558Z,97974.00
2023-05-05T10:01:06.249Z,98027.66
2023-05-05T10:03:55.145Z,97968.66
2023-05-05T10:06:49.142Z,97966.88
2023-05-05T10:09:23.132Z,97957.00
2023-05-05T10:11:54.236Z,97997.78
2023-05-05T10:14:28.997Z,98006.28
2023-05-05T10:17:00.880Z,97973.53
2023-05-05T10:19:42.046Z,97923.41
2023-05-05T10:22:11.765Z,97998.44
2023-05-05T10:24:54.290Z,98001.84
2023-05-05T10:27:32.601Z,97949.44
2023-05-05T10:30:07.640Z,97992.66
2023-05-05T10:32:59.333Z,97909.16
2023-05-05T10:35:41.844Z,97901.03
2023-05-05T10:38:12.583Z,97884.03
2023-05-05T10:40:45.955Z,97924.84
2023-05-05T10:43:15.790Z,97895.16
2023-05-05T10:45:45.714Z,97911.59
2023-05-05T10:48:24.585Z,97925.66
2023-05-05T10:50:58.251Z,97933.31
2023-05-05T10:53:32.314Z,97923.41
2023-05-05T10:56:12.323Z,97941.78
2023-05-05T10:58:58.834Z,97933.75
2023-05-05T11:01:33.678Z,97927.66
2023-05-05T11:04:18.903Z,97949.75
2023-05-05T11:07:34.738Z,97895.69
2023-05-05T11:10:06.128Z,97847.84
2023-05-05T11:12:51.636Z,97872.84
2023-05-05T11:15:38.727Z,97894.22
2023-05-05T11:18:08.766Z,97884.19
2023-05-05T11:21:07.209Z,97917.94
2023-05-05T11:23:39.716Z,97894.84
2023-05-05T11:26:10.331Z,97896.88
2023-05-05T11:29:04.025Z,97886.72
2023-05-05T11:31:33.290Z,97893.38
2023-05-05T11:34:31.290Z,97923.41
2023-05-05T11:37:03.033Z,97909.44
2023-05-05T11:39:44.510Z,97847.31
2023-05-05T11:42:27.607Z,97809.72
2023-05-05T11:44:56.995Z,97817.78
2023-05-05T11:47:32.835Z,97800.41
2023-05-05T11:50:18.998Z,97779.25
2023-05-05T11:52:51.902Z,97784.16
2023-05-05T11:55:25.722Z,97763.16
2023-05-05T11:57:59.872Z,97758.72
2023-05-05T12:00:39.588Z,97822.75
2023-05-05T12:03:11.051Z,97840.13
2023-05-05T12:05:49.272Z,97873.34
2023-05-05T12:08:19.647Z,97809.44
2023-05-05T12:10:51.398Z,97779.19
2023-05-05T12:13:22.381Z,97843.28
2023-05-05T12:15:50.956Z,97863.13
2023-05-05T12:18:20.288Z,97865.97
2023-05-05T12:20:49.006Z,97787.03
2023-05-05T12:23:20.337Z,97793.16
2023-05-05T12:25:53.987Z,97845.50
2023-05-05T12:28:23.823Z,97850.03
2023-05-05T12:31:04.211Z,97846.00
2023-05-05T12:33:44.652Z,97826.97
2023-05-05T12:36:13.765Z,97791.19
2023-05-05T12:38:44.372Z,97817.75
2023-05-05T12:41:24.812Z,97805.03
2023-05-05T12:43:58.505Z,97804.81
2023-05-05T12:46:30.265Z,97781.25
2023-05-05T12:49:05.915Z,97801.63
2023-05-05T12:51:36.889Z,97820.91
2023-05-05T12:54:07.406Z,97806.34
2023-05-05T12:56:40.244Z,97803.25
2023-05-05T12:59:13.251Z,97792.03
2023-05-05T13:01:51.173Z,97780.16
2023-05-05T13:04:21.114Z,97822.91
2023-05-05T13:06:52.509Z,97825.19
2023-05-05T13:09:27.879Z,97830.03
2023-05-05T13:11:57.065Z,97847.06
2023-05-05T13:14:27.031Z,97824.41
2023-05-05T13:16:56.162Z,97832.25
2023-05-05T13:19:25.152Z,97808.69
2023-05-05T13:21:55.782Z,97790.94
2023-05-05T13:24:37.929Z,97808.38
2023-05-05T13:27:10.915Z,97806.44
2023-05-05T13:29:46.425Z,97802.31
2023-05-05T13:32:14.614Z,97757.63
2023-05-05T13:34:49.299Z,97758.91
2023-05-05T13:37:17.479Z,97737.00
2023-05-05T13:39:46.325Z,97729.41
2023-05-05T13:42:19.273Z,97767.88
2023-05-05T13:44:49.859Z,97720.00
2023-05-05T13:47:18.219Z,97728.91
2023-05-05T13:49:56.875Z,97721.22
2023-05-05T13:52:26.266Z,97688.94
2023-05-05T13:54:57.729Z,97704.91
2023-05-05T13:57:25.932Z,97698.59
2023-05-05T13:59:55.866Z,97693.63
2023-05-05T14:02:26.705Z,97686.19
2023-05-05T14:04:57.630Z,97655.72
2023-05-05T14:07:28.203Z,97669.63
2023-05-05T14:09:58.102Z,97658.16
2023-05-05T14:12:27.178Z,97665.34
2023-05-05T14:15:03.178Z,97664.25
2023-05-05T14:17:33.100Z,97613.91
2023-05-05T14:20:02.011Z,97590.34
2023-05-05T14:22:36.995Z,97465.84
2023-05-05T14:25:07.025Z,97458.91
2023-05-05T14:27:37.752Z,97443.19
2023-05-05T14:30:10.759Z,97442.94
2023-05-05T14:32:44.080Z,97477.31
2023-05-05T14:35:12.879Z,97473.72
2023-05-05T14:37:45.155Z,97445.09
2023-05-05T14:40:14.150Z,97447.81
2023-05-05T14:42:42.356Z,97454.41
2023-05-05T14:45:12.938Z,97466.88
2023-05-05T14:47:41.775Z,97444.53
2023-05-05T14:50:11.103Z,97469.38
2023-05-05T14:52:41.624Z,97443.25
2023-05-05T14:55:13.038Z,97472.84
2023-05-05T14:57:41.713Z,97462.75
2023-05-05T15:00:13.492Z,97459.22
2023-05-05T15:02:42.194Z,97471.41
2023-05-05T15:05:13.654Z,97433.28
2023-05-05T15:07:42.740Z,97441.78
2023-05-05T15:10:12.191Z,97441.72
2023-05-05T15:12:42.588Z,97447.56
2023-05-05T15:15:13.726Z,97452.50
2023-05-05T15:17:43.472Z,97449.84
2023-05-05T15:20:19.310Z,97475.47
2023-05-05T15:22:58.820Z,97452.41
2023-05-05T15:25:32.942Z,97479.06
2023-05-05T15:28:03.871Z,97424.50
2023-05-05T15:30:40.855Z,97421.78
2023-05-05T15:33:09.657Z,97429.78
2023-05-05T15:35:45.033Z,97463.69
2023-05-05T15:38:30.604Z,97433.16
2023-05-05T15:41:28.884Z,97430.66
2023-05-05T15:44:23.211Z,97416.72
2023-05-05T15:47:08.429Z,97425.16
2023-05-05T15:49:37.904Z,97437.19
2023-05-05T15:52:07.453Z,97416.44
2023-05-05T15:54:39.788Z,97414.16
2023-05-05T15:57:11.751Z,97425.34
2023-05-05T15:59:43.382Z,97416.34
2023-05-05T16:02:19.194Z,97416.06
2023-05-05T16:04:50.866Z,97427.38
2023-05-05T16:07:22.728Z,97389.88
2023-05-05T16:09:55.008Z,97388.66
2023-05-05T16:12:31.682Z,97433.78
2023-05-05T16:15:03.717Z,97423.38
2023-05-05T16:17:39.171Z,97422.78
2023-05-05T16:20:14.096Z,97422.25
2023-05-05T16:22:48.851Z,97416.53
2023-05-05T16:25:20.243Z,97414.00
2023-05-05T16:27:49.366Z,97385.78
2023-05-05T16:30:22.502Z,97420.94
2023-05-05T16:32:53.163Z,97410.69
2023-05-05T16:35:22.942Z,97414.84
2023-05-05T16:37:53.083Z,97381.78
2023-05-05T16:40:22.021Z,97377.53
2023-05-05T16:42:53.254Z,97393.44
2023-05-05T16:45:25.455Z,97413.19
2023-05-05T16:47:58.066Z,97377.00
2023-05-05T16:50:26.952Z,97395.28
2023-05-05T16:52:55.216Z,97388.75
2023-05-05T16:55:24.472Z,97397.47
2023-05-05T16:57:52.673Z,97380.25
2023-05-05T17:00:21.335Z,97374.22
2023-05-05T17:02:50.190Z,97393.94
2023-05-05T17:05:19.945Z,97368.72
2023-05-05T17:07:52.013Z,97374.59
2023-05-05T17:10:20.665Z,97394.63
2023-05-05T17:12:48.575Z,97386.88
2023-05-05T17:15:16.639Z,97390.50
2023-05-05T17:17:45.564Z,97392.72
2023-05-05T17:20:13.962Z,97384.50
2023-05-05T17:22:43.452Z,97379.16
2023-05-05T17:25:12.414Z,97382.59
2023-05-05T17:27:41.108Z,97371.47
2023-05-05T17:30:10.685Z,97360.19
2023-05-05T17:32:39.437Z,97385.50
2023-05-05T17:35:08.471Z,97385.66
2023-05-05T17:37:37.236Z,97371.25
2023-05-05T17:40:08.171Z,97384.19
2023-05-05T17:42:36.555Z,97358.00
2023-05-05T17:45:04.746Z,97382.59
2023-05-05T17:47:32.779Z,97378.88
2023-05-05T17:50:00.687Z,97376.47
2023-05-05T17:52:28.802Z,97378.81
2023-05-05T17:54:57.329Z,97368.09
2023-05-05T17:57:26.527Z,97374.72
2023-05-05T17:59:54.429Z,97380.09
2023-05-05T18:02:24.352Z,97370.63
2023-05-05T18:04:53.269Z,97366.41
2023-05-05T18:07:22.232Z,97374.28
2023-05-05T18:09:50.735Z,97371.72
2023-05-05T18:12:19.447Z,97374.19
2023-05-05T18:14:49.011Z,97365.91
2023-05-05T18:17:38.051Z,97360.38
2023-05-05T18:20:07.138Z,97361.78
2023-05-05T18:22:35.606Z,97364.69
2023-05-05T18:27:33.710Z,97363.47
2023-05-05T18:30:05.223Z,97364.16
2023-05-05T18:32:33.605Z,97329.19
2023-05-05T18:35:01.771Z,97378.03
2023-05-05T18:37:30.325Z,97373.25
2023-05-05T18:39:58.381Z,97379.00
2023-05-05T18:42:26.856Z,97373.53
2023-05-05T18:44:55.573Z,97362.03
2023-05-05T18:47:25.032Z,97358.38
2023-05-05T18:49:53.373Z,97342.19
2023-05-05T18:52:22.410Z,97372.81
2023-05-05T18:54:53.970Z,97366.00
2023-05-05T18:57:22.845Z,97386.94
2023-05-05T18:59:51.498Z,97379.63
2023-05-05T19:02:20.010Z,97378.63
2023-05-05T19:04:49.827Z,97371.13
2023-05-05T19:07:33.776Z,97375.00
2023-05-05T19:10:03.527Z,97373.13
2023-05-05T19:12:32.042Z,97372.75
2023-05-05T19:15:00.388Z,97377.91
2023-05-05T19:17:29.730Z,97375.72
2023-05-05T19:19:59.170Z,97388.00
2023-05-05T19:22:27.149Z,97380.31
2023-05-05T19:24:55.473Z,97379.06
2023-05-05T19:27:23.611Z,97378.31
2023-05-05T19:29:53.170Z,97376.91
2023-05-05T19:32:22.722Z,97372.88
2023-05-05T19:34:54.600Z,97389.47
2023-05-05T19:37:24.371Z,97397.34
2023-05-05T19:39:52.585Z,97421.06
2023-05-05T19:42:21.694Z,97413.44
2023-05-05T19:44:49.654Z,97420.88
2023-05-05T19:47:18.008Z,97437.19
2023-05-05T19:49:46.575Z,97438.31
2023-05-05T19:52:18.609Z,97424.28
2023-05-05T19:54:52.071Z,97434.00
2023-05-05T19:57:23.412Z,97447.44
2023-05-05T19:59:52.076Z,97447.44
2023-05-05T20:02:27.165Z,97453.09
2023-05-05T20:04:56.146Z,97431.41
2023-05-05T20:07:24.949Z,97440.19
2023-05-05T20:09:54.989Z,97458.91
2023-05-05T20:12:23.765Z,97443.91
2023-05-05T20:14:52.683Z,97468.31
2023-05-05T20:17:21.546Z,97471.16
2023-05-05T20:19:49.622Z,97476.75
2023-05-05T20:22:18.287Z,97481.31
2023-05-05T20:24:46.273Z,97462.28
2023-05-05T20:27:15.761Z,97468.41
2023-05-05T20:29:44.262Z,97483.59
2023-05-05T20:32:12.186Z,97469.44
2023-05-05T20:34:40.083Z,97494.06
2023-05-05T20:37:08.687Z,97488.25
2023-05-05T20:39:37.340Z,97485.66
2023-05-05T20:42:05.496Z,97480.41
2023-05-05T20:44:35.200Z,97455.44
2023-05-05T20:47:03.168Z,97470.59
2023-05-05T20:49:31.991Z,97491.00
2023-05-05T20:52:00.652Z,97480.72
2023-05-05T20:54:33.923Z,97502.75
2023-05-05T20:57:03.281Z,97487.81
2023-05-05T20:59:31.081Z,97499.34
2023-05-05T21:02:00.429Z,97486.66
2023-05-05T21:04:28.781Z,97513.69
2023-05-05T21:06:57.518Z,97493.16
2023-05-05T21:09:26.534Z,97515.75
2023-05-05T21:11:54.989Z,97507.75
2023-05-05T21:14:23.479Z,97504.31
2023-05-05T21:16:52.107Z,97500.59
2023-05-05T21:19:22.169Z,97493.28
2023-05-05T21:21:51.420Z,97496.47
2023-05-05T21:24:19.739Z,97508.44
2023-05-05T21:26:48.272Z,97492.63
2023-05-05T21:29:16.143Z,97497.38
2023-05-05T21:31:44.168Z,97498.19
2023-05-05T21:34:12.939Z,97500.59
2023-05-05T21:36:42.907Z,97504.00
2023-05-05T21:39:11.945Z,97507.75
2023-05-05T21:41:39.944Z,97506.16
2023-05-05T21:44:08.302Z,97503.91
2023-05-05T21:46:36.316Z,97508.00
2023-05-05T21:49:14.222Z,97509.56
2023-05-05T21:51:45.875Z,97507.75
2023-05-05T21:54:14.563Z,97510.03
2023-05-05T21:56:42.683Z,97494.53
2023-05-05T21:59:11.120Z,97508.66
2023-05-05T22:01:39.560Z,97497.47
2023-05-05T22:04:08.585Z,97495.66
2023-05-05T22:06:36.635Z,97503.88
2023-05-05T22:09:06.208Z,97493.38
2023-05-05T22:11:34.600Z,97497.81
2023-05-05T22:14:02.885Z,97493.81
2023-05-05T22:16:31.287Z,97499.38
2023-05-05T22:18:59.687Z,97489.84
2023-05-05T22:21:28.236Z,97477.78
2023-05-05T22:23:56.630Z,97477.34
2023-05-05T22:26:26.049Z,97490.34
2023-05-05T22:28:55.795Z,97480.44
2023-05-05T22:31:24.080Z,97489.22
2023-05-05T22:33:51.995Z,97480.50
2023-05-05T22:36:19.944Z,97477.09
2023-05-05T22:38:48.360Z,97477.78
2023-05-05T22:41:16.627Z,97475.53
2023-05-05T22:43:47.405Z,97470.28
2023-05-05T22:46:15.679Z,97466.28
2023-05-05T22:48:43.588Z,97453.06
2023-05-05T22:51:11.617Z,97477.91
2023-05-05T22:53:40.594Z,97463.00
2023-05-05T22:56:09.040Z,97470.53
2023-05-05T22:58:37.153Z,97461.19
2023-05-05T23:01:07.912Z,97465.72
2023-05-05T23:03:35.870Z,97453.56
2023-05-05T23:06:03.809Z,97458.78
2023-05-05T23:08:32.108Z,97462.88
2023-05-05T23:11:01.722Z,97459.94
2023-05-05T23:13:30.135Z,97456.28
2023-05-05T23:15:58.184Z,97461.00
2023-05-05T23:18:27.457Z,97458.28
2023-05-05T23:20:55.880Z,97452.47
2023-05-05T23:23:23.723Z,97452.47
2023-05-05T23:25:51.998Z,97462.13
2023-05-05T23:28:20.668Z,97460.19
2023-05-05T23:30:48.481Z,97459.84
2023-05-05T23:33:16.550Z,97447.56
2023-05-05T23:35:46.259Z,97444.19
2023-05-05T23:38:14.147Z,97452.81
2023-05-05T23:40:42.022Z,97454.41
2023-05-05T23:43:11.904Z,97457.16
2023-05-05T23:45:40.960Z,97454.53
2023-05-05T23:48:08.928Z,97451.78
2023-05-05T23:50:37.242Z,97452.81
2023-05-05T23:53:06.453Z,97467.53
2023-05-05T23:55:34.376Z,97463.28
2023-05-05T23:58:02.896Z,97467.38
